Time;durP1;ratioP1;P1;durP2;ratioP2;P2;SDS_P1;SDS_P2;PMS_P1;PMS_P2;Temp;Humidity;BMP_temperature;BMP_pressure;BME280_temperature;BME280_humidity;BME280_pressure;Samples;Min_cycle;Max_cycle;Signal;HPM_P1;HPM_P2
2022/04/20 00:00:28;;;;;;;0.70;0.70;;;8.00;1.00;;;;;;5018694;28;20227;-78
2022/04/20 00:02:53;;;;;;;0.80;0.80;;;7.80;1.00;;;;;;5036460;28;20172;-77
2022/04/20 00:05:19;;;;;;;0.70;0.70;;;7.70;1.00;;;;;;5037308;28;20176;-77
2022/04/20 00:07:44;;;;;;;0.70;0.70;;;7.90;1.00;;;;;;5037784;28;20222;-78
2022/04/20 00:10:10;;;;;;;0.70;0.70;;;7.90;1.00;;;;;;5036337;28;20295;-78
2022/04/20 00:12:35;;;;;;;0.80;0.80;;;7.90;1.00;;;;;;5018300;28;20206;-78
2022/04/20 00:15:01;;;;;;;0.70;0.70;;;7.80;1.00;;;;;;5035612;28;20657;-79
2022/04/20 00:17:27;;;;;;;0.80;0.80;;;7.80;1.00;;;;;;5034158;28;20172;-78
2022/04/20 00:19:52;;;;;;;0.77;0.77;;;7.80;1.00;;;;;;5017825;28;20187;-78
2022/04/20 00:22:18;;;;;;;0.70;0.70;;;7.70;1.00;;;;;;5034341;28;20179;-79
2022/04/20 00:24:43;;;;;;;0.73;0.73;;;7.80;1.00;;;;;;5034428;28;20182;-78
2022/04/20 00:27:09;;;;;;;0.70;0.70;;;7.70;1.00;;;;;;5034598;28;20690;-79
2022/04/20 00:29:35;;;;;;;0.60;0.60;;;7.70;1.00;;;;;;5034086;28;20301;-79
2022/04/20 00:32:00;;;;;;;0.70;0.70;;;7.70;1.00;;;;;;5034303;28;20563;-78
2022/04/20 00:34:26;;;;;;;0.80;0.80;;;7.60;1.00;;;;;;5034232;28;20172;-78
2022/04/20 00:36:53;;;;;;;0.80;0.80;;;7.60;1.00;;;;;;5034311;28;20196;-78
2022/04/20 00:39:19;;;;;;;0.60;0.60;;;7.60;1.00;;;;;;5033709;28;20187;-79
2022/04/20 00:41:45;;;;;;;0.70;0.70;;;7.60;1.00;;;;;;5034207;28;20200;-78
2022/04/20 00:44:11;;;;;;;0.70;0.70;;;7.50;1.00;;;;;;5034387;28;20255;-80
2022/04/20 00:46:38;;;;;;;0.70;0.70;;;7.50;1.00;;;;;;5034512;28;20184;-80
2022/04/20 00:49:05;;;;;;;0.80;0.80;;;7.50;1.00;;;;;;5033980;28;20243;-79
2022/04/20 00:51:31;;;;;;;0.70;0.70;;;7.50;1.00;;;;;;5034269;28;20192;-79
2022/04/20 00:54:01;;;;;;;0.60;0.60;;;7.50;1.00;;;;;;5034136;28;20266;-79
2022/04/20 00:56:27;;;;;;;0.70;0.70;;;7.50;1.00;;;;;;5033823;28;20207;-80
2022/04/20 00:58:55;;;;;;;0.70;0.70;;;7.40;1.00;;;;;;5033951;28;20204;-79
2022/04/20 01:01:20;;;;;;;0.60;0.60;;;7.40;1.00;;;;;;5033959;28;20261;-79
2022/04/20 01:03:46;;;;;;;0.60;0.60;;;7.40;1.00;;;;;;5034091;28;20179;-79
2022/04/20 01:06:11;;;;;;;0.80;0.80;;;7.40;1.00;;;;;;5037886;28;20582;-79
2022/04/20 01:08:37;;;;;;;0.70;0.70;;;7.40;1.00;;;;;;5037481;28;20257;-78
2022/04/20 01:11:03;;;;;;;0.70;0.70;;;7.30;1.00;;;;;;5036163;28;20187;-79
2022/04/20 01:13:28;;;;;;;0.60;0.60;;;7.30;1.00;;;;;;5037255;28;20199;-78
2022/04/20 01:15:54;;;;;;;0.67;0.67;;;7.30;1.00;;;;;;5034242;28;20184;-78
2022/04/20 01:18:20;;;;;;;0.60;0.60;;;7.20;1.00;;;;;;5033933;28;20255;-78
2022/04/20 01:20:45;;;;;;;0.70;0.70;;;7.20;1.00;;;;;;5033244;28;20669;-80
2022/04/20 01:23:11;;;;;;;0.70;0.70;;;7.20;1.00;;;;;;5033753;28;20660;-78
2022/04/20 01:25:37;;;;;;;0.70;0.70;;;7.20;1.00;;;;;;5033972;28;20310;-78
2022/04/20 01:28:04;;;;;;;0.70;0.70;;;7.10;1.00;;;;;;5033725;28;20225;-77
2022/04/20 01:30:30;;;;;;;0.70;0.70;;;7.10;1.00;;;;;;5033475;28;20210;-77
2022/04/20 01:32:56;;;;;;;0.70;0.70;;;7.00;1.00;;;;;;5033646;28;20176;-78
2022/04/20 01:35:22;;;;;;;0.70;0.70;;;7.00;1.00;;;;;;5033369;28;20195;-79
2022/04/20 01:37:49;;;;;;;0.70;0.70;;;7.00;1.00;;;;;;5033716;28;20172;-78
2022/04/20 01:40:15;;;;;;;0.70;0.70;;;7.10;1.00;;;;;;5033559;28;20196;-79
2022/04/20 01:42:40;;;;;;;0.73;0.73;;;7.00;1.00;;;;;;5015689;28;20192;-77
2022/04/20 01:45:06;;;;;;;0.60;0.60;;;7.00;1.00;;;;;;5033106;28;20184;-76
2022/04/20 01:47:32;;;;;;;0.70;0.70;;;6.90;1.00;;;;;;5032888;28;20187;-76
2022/04/20 01:49:57;;;;;;;0.80;0.80;;;6.90;1.00;;;;;;5032165;28;20641;-76
2022/04/20 01:52:23;;;;;;;0.70;0.70;;;6.90;1.00;;;;;;5032825;28;20184;-75
2022/04/20 01:54:48;;;;;;;0.70;0.70;;;6.90;1.00;;;;;;5032886;28;20186;-76
2022/04/20 01:57:14;;;;;;;0.70;0.70;;;6.80;1.00;;;;;;5032829;28;20182;-77
2022/04/20 01:59:40;;;;;;;0.70;0.70;;;6.80;1.00;;;;;;5032347;28;20175;-76
2022/04/20 02:04:49;;;;;;;0.70;0.70;;;6.80;1.00;;;;;;5032917;28;20222;-76
2022/04/20 02:07:15;;;;;;;0.70;0.70;;;6.80;1.00;;;;;;5031680;28;20660;-76
2022/04/20 02:09:40;;;;;;;0.80;0.80;;;6.70;1.00;;;;;;5031981;28;20242;-78
2022/04/20 02:12:07;;;;;;;0.80;0.80;;;6.70;1.00;;;;;;5032661;28;20192;-77
2022/04/20 02:14:33;;;;;;;0.70;0.70;;;6.70;1.00;;;;;;5032605;28;20180;-76
2022/04/20 02:16:58;;;;;;;0.70;0.70;;;6.60;1.00;;;;;;5032516;28;20178;-77
2022/04/20 02:19:24;;;;;;;0.80;0.80;;;6.70;1.00;;;;;;5031730;28;20542;-77
2022/04/20 02:21:49;;;;;;;0.80;0.80;;;6.60;1.00;;;;;;5032302;28;20306;-76
2022/04/20 02:24:15;;;;;;;0.77;0.77;;;6.60;1.00;;;;;;5032355;28;20218;-76
2022/04/20 02:26:41;;;;;;;0.80;0.80;;;6.60;1.00;;;;;;5032245;28;20250;-77
2022/04/20 02:29:07;;;;;;;0.90;0.90;;;6.50;1.00;;;;;;5031853;28;20204;-77
2022/04/20 02:31:32;;;;;;;0.90;0.90;;;6.50;1.00;;;;;;5032083;28;20702;-77
2022/04/20 02:33:58;;;;;;;0.70;0.70;;;6.40;1.00;;;;;;5032141;28;20536;-77
2022/04/20 02:36:23;;;;;;;0.73;0.73;;;6.40;12.60;;;;;;5032300;28;20668;-76
2022/04/20 02:38:49;;;;;;;0.70;0.70;;;6.30;52.80;;;;;;5033226;28;20186;-79
2022/04/20 02:41:15;;;;;;;0.77;0.77;;;6.30;62.00;;;;;;5032397;28;20696;-77
2022/04/20 02:43:41;;;;;;;0.70;0.70;;;6.30;99.90;;;;;;5031933;28;20178;-78
2022/04/20 02:46:07;;;;;;;0.70;0.70;;;6.20;99.90;;;;;;5031875;28;20275;-77
2022/04/20 02:48:32;;;;;;;0.73;0.73;;;6.20;99.90;;;;;;5031621;28;20223;-77
2022/04/20 02:50:58;;;;;;;0.80;0.80;;;6.20;99.90;;;;;;5030787;28;20229;-77
2022/04/20 02:53:23;;;;;;;0.70;0.70;;;6.10;99.90;;;;;;5031541;28;20183;-77
2022/04/20 02:55:49;;;;;;;0.70;0.70;;;6.00;99.90;;;;;;5031890;28;20249;-77
2022/04/20 02:58:15;;;;;;;0.70;0.70;;;5.90;99.90;;;;;;5031624;28;20653;-77
2022/04/20 03:00:40;;;;;;;0.80;0.80;;;5.90;99.90;;;;;;5031008;28;20253;-77
2022/04/20 03:03:06;;;;;;;0.70;0.70;;;6.00;99.90;;;;;;5031440;28;20255;-77
2022/04/20 03:05:31;;;;;;;0.70;0.70;;;5.90;99.90;;;;;;5031523;28;20172;-77
2022/04/20 03:07:57;;;;;;;0.80;0.80;;;5.70;1.00;;;;;;5031362;28;20207;-77
2022/04/20 03:10:23;;;;;;;0.70;0.70;;;5.60;1.00;;;;;;5030727;28;20203;-77
2022/04/20 03:12:49;;;;;;;0.80;0.80;;;5.50;1.00;;;;;;5031361;28;20222;-77
2022/04/20 03:15:15;;;;;;;0.70;0.70;;;5.40;1.00;;;;;;5031525;28;20172;-78
2022/04/20 03:17:42;;;;;;;0.80;0.80;;;5.40;1.00;;;;;;5031278;28;20535;-78
2022/04/20 03:20:07;;;;;;;0.60;0.60;;;5.30;1.00;;;;;;5030646;28;20176;-78
2022/04/20 03:22:33;;;;;;;0.80;0.80;;;5.40;1.00;;;;;;5031058;28;20195;-78
2022/04/20 03:24:58;;;;;;;0.67;0.67;;;5.50;1.00;;;;;;5031579;28;20262;-79
2022/04/20 03:27:24;;;;;;;0.80;0.80;;;5.50;99.90;;;;;;5031378;28;20174;-78
2022/04/20 03:29:50;;;;;;;0.70;0.70;;;5.50;99.90;;;;;;5032122;28;20307;-78
2022/04/20 03:32:16;;;;;;;0.70;0.70;;;5.60;99.90;;;;;;5032267;28;20187;-78
2022/04/20 03:34:42;;;;;;;0.70;0.70;;;5.50;99.90;;;;;;5032223;28;20611;-78
2022/04/20 03:37:08;;;;;;;0.70;0.70;;;5.30;1.00;;;;;;5032125;28;20211;-79
2022/04/20 03:39:34;;;;;;;0.80;0.80;;;5.20;1.00;;;;;;5032608;28;20234;-78
2022/04/20 03:41:59;;;;;;;0.70;0.70;;;5.00;1.00;;;;;;5033210;28;20680;-79
2022/04/20 03:44:26;;;;;;;0.80;0.80;;;4.50;1.00;;;;;;5033551;28;20193;-78
2022/04/20 03:46:52;;;;;;;0.80;0.80;;;4.10;12.90;;;;;;5034826;28;20183;-79
2022/04/20 03:49:18;;;;;;;0.80;0.80;;;3.80;59.30;;;;;;5033638;28;20357;-77
2022/04/20 03:51:45;;;;;;;0.80;0.80;;;3.90;99.90;;;;;;5033904;28;20203;-76
2022/04/20 03:54:11;;;;;;;0.80;0.80;;;3.90;99.90;;;;;;5031101;28;20270;-78
2022/04/20 03:59:21;;;;;;;0.80;0.80;;;3.90;99.90;;;;;;5030587;28;20201;-77
2022/04/20 04:01:46;;;;;;;0.70;0.70;;;3.80;99.90;;;;;;5031045;28;20188;-77
2022/04/20 04:04:12;;;;;;;0.70;0.70;;;3.70;99.90;;;;;;5031384;28;20202;-78
2022/04/20 04:06:37;;;;;;;0.90;0.90;;;3.70;1.00;;;;;;5029197;28;20198;-78
2022/04/20 04:11:43;;;;;;;0.80;0.80;;;3.70;1.00;;;;;;5068538;23;20669;-79
2022/04/20 04:14:09;;;;;;;0.80;0.80;;;3.80;1.00;;;;;;5055898;28;20298;-79
2022/04/20 04:16:36;;;;;;;0.77;0.77;;;3.90;99.90;;;;;;5059043;28;20206;-81
2022/04/20 04:19:08;;;;;;;0.80;0.80;;;3.80;1.00;;;;;;5057756;28;20183;-78
2022/04/20 04:21:40;;;;;;;0.80;0.80;;;3.60;1.00;;;;;;5057756;28;20544;-80
2022/04/20 04:24:08;;;;;;;0.70;0.70;;;3.70;1.00;;;;;;5056179;28;20175;-79
2022/04/20 04:26:34;;;;;;;0.80;0.80;;;3.60;99.90;;;;;;5054982;28;20513;-79
2022/04/20 04:29:00;;;;;;;0.80;0.80;;;3.60;99.90;;;;;;5060001;28;20215;-78
2022/04/20 04:31:26;;;;;;;0.80;0.80;;;3.60;99.90;;;;;;5062862;28;20809;-78
2022/04/20 04:33:52;;;;;;;0.70;0.70;;;3.60;1.00;;;;;;5064332;28;20179;-77
2022/04/20 04:36:18;;;;;;;0.80;0.80;;;3.60;1.00;;;;;;5060887;28;20179;-78
2022/04/20 04:38:44;;;;;;;0.80;0.80;;;3.60;1.00;;;;;;5059969;28;20185;-77
2022/04/20 04:41:09;;;;;;;0.80;0.80;;;3.60;99.90;;;;;;5059536;28;20199;-78
2022/04/20 04:43:35;;;;;;;0.73;0.73;;;3.60;1.00;;;;;;5061038;28;20206;-78
2022/04/20 04:48:48;;;;;;;0.80;0.80;;;3.80;1.00;;;;;;5060821;28;20282;-78
2022/04/20 04:51:14;;;;;;;0.80;0.80;;;3.80;1.00;;;;;;5060055;28;20201;-78
2022/04/20 04:53:40;;;;;;;0.80;0.80;;;3.80;1.00;;;;;;5042339;28;20652;-78
2022/04/20 04:56:06;;;;;;;0.80;0.80;;;4.30;1.00;;;;;;5060991;28;20270;-78
2022/04/20 04:58:31;;;;;;;0.90;0.90;;;4.70;99.90;;;;;;5058722;28;20202;-77
2022/04/20 05:00:58;;;;;;;0.70;0.70;;;5.10;1.00;;;;;;5055854;28;20199;-77
2022/04/20 05:03:24;;;;;;;0.70;0.70;;;5.30;1.00;;;;;;5058637;28;20183;-79
2022/04/20 05:05:50;;;;;;;0.70;0.70;;;5.30;1.00;;;;;;5062178;28;20179;-79
2022/04/20 05:08:16;;;;;;;0.70;0.70;;;5.00;1.00;;;;;;5059483;28;20210;-77
2022/04/20 05:10:42;;;;;;;0.77;0.77;;;4.60;27.30;;;;;;5058739;28;20218;-78
2022/04/20 05:13:08;;;;;;;0.77;0.77;;;4.70;1.00;;;;;;5060376;28;20560;-78
2022/04/20 05:15:34;;;;;;;0.80;0.80;;;4.90;1.00;;;;;;5060105;28;20598;-78
2022/04/20 05:18:00;;;;;;;0.80;0.80;;;5.00;1.00;;;;;;5058113;28;20186;-77
2022/04/20 05:20:26;;;;;;;0.70;0.70;;;5.20;99.90;;;;;;5055797;28;20199;-77
2022/04/20 05:22:51;;;;;;;0.70;0.70;;;5.10;1.00;;;;;;5056897;28;20561;-78
2022/04/20 05:25:17;;;;;;;0.73;0.73;;;5.10;99.90;;;;;;5068462;28;20499;-78
2022/04/20 05:27:44;;;;;;;0.67;0.67;;;5.10;1.00;;;;;;5062950;28;20194;-79
2022/04/20 05:30:14;;;;;;;0.70;0.70;;;4.90;1.00;;;;;;5060060;28;20741;-78
2022/04/20 05:32:40;;;;;;;0.70;0.70;;;5.20;1.00;;;;;;5075874;28;20202;-77
2022/04/20 05:35:06;;;;;;;0.77;0.77;;;5.90;1.00;;;;;;5073562;28;20170;-77
2022/04/20 05:43:00;;;;;;;0.70;0.70;;;6.50;1.00;;;;;;5072406;28;20228;-76
2022/04/20 05:45:26;;;;;;;0.70;0.70;;;6.60;1.00;;;;;;5075347;28;20164;-77
2022/04/20 05:47:52;;;;;;;0.70;0.70;;;6.50;1.00;;;;;;5077712;28;20179;-78
2022/04/20 05:50:18;;;;;;;0.67;0.67;;;6.50;1.00;;;;;;5077003;28;20199;-77
2022/04/20 05:52:43;;;;;;;0.70;0.70;;;6.60;1.00;;;;;;5077182;28;20166;-77
2022/04/20 05:55:09;;;;;;;0.60;0.60;;;6.70;1.00;;;;;;5076541;28;20639;-76
2022/04/20 05:57:35;;;;;;;0.70;0.70;;;6.90;1.00;;;;;;5075826;28;20624;-75
2022/04/20 06:00:00;;;;;;;0.70;0.70;;;7.00;1.00;;;;;;5076189;28;20175;-77
2022/04/20 06:02:26;;;;;;;0.70;0.70;;;7.00;1.00;;;;;;5075467;28;20239;-78
2022/04/20 06:04:51;;;;;;;0.70;0.70;;;7.20;1.00;;;;;;5059402;28;20180;-78
2022/04/20 06:07:17;;;;;;;0.80;0.80;;;7.30;1.00;;;;;;5075296;28;20183;-77
2022/04/20 06:09:43;;;;;;;0.67;0.67;;;7.30;1.00;;;;;;5071483;28;20226;-77
2022/04/20 06:12:09;;;;;;;0.80;0.80;;;7.30;1.00;;;;;;5061929;28;20273;-78
2022/04/20 06:14:34;;;;;;;0.80;0.80;;;7.30;1.00;;;;;;5059248;28;20206;-77
2022/04/20 06:17:00;;;;;;;0.67;0.67;;;7.20;1.00;;;;;;5061250;28;20176;-77
2022/04/20 06:19:25;;;;;;;0.60;0.60;;;7.20;1.00;;;;;;5039448;28;20266;-78
2022/04/20 06:21:51;;;;;;;0.70;0.70;;;7.20;1.00;;;;;;5061157;28;20203;-80
2022/04/20 06:24:16;;;;;;;0.70;0.70;;;7.30;1.00;;;;;;5060035;28;20198;-78
2022/04/20 06:26:42;;;;;;;0.60;0.60;;;7.30;1.00;;;;;;5064246;28;20191;-78
2022/04/20 06:29:07;;;;;;;0.60;0.60;;;7.40;1.00;;;;;;5061247;28;20215;-78
2022/04/20 06:31:33;;;;;;;0.77;0.77;;;7.50;1.00;;;;;;5062403;28;20199;-77
2022/04/20 06:33:59;;;;;;;0.60;0.60;;;7.80;1.00;;;;;;5061033;28;20243;-78
2022/04/20 06:36:26;;;;;;;0.67;0.67;;;7.80;1.00;;;;;;5060007;28;20254;-78
2022/04/20 06:38:52;;;;;;;0.63;0.63;;;7.60;1.00;;;;;;5055196;28;20648;-77
2022/04/20 06:41:18;;;;;;;0.70;0.70;;;7.50;1.00;;;;;;5054832;28;20191;-78
2022/04/20 06:43:44;;;;;;;0.70;0.70;;;7.40;1.00;;;;;;5054515;28;20179;-78
2022/04/20 06:46:10;;;;;;;0.70;0.70;;;7.70;1.00;;;;;;5053532;28;20540;-77
2022/04/20 06:48:35;;;;;;;0.60;0.60;;;7.60;1.00;;;;;;5052699;28;20222;-77
2022/04/20 06:51:01;;;;;;;0.70;0.70;;;7.80;1.00;;;;;;5052202;28;20680;-77
2022/04/20 06:59:12;;;;;;;0.70;0.70;;;8.10;1.00;;;;;;5011146;28;20251;-77
2022/04/20 07:01:38;;;;;;;0.67;0.67;;;8.00;1.00;;;;;;5044955;28;20207;-74
2022/04/20 07:04:03;;;;;;;0.67;0.67;;;8.10;1.00;;;;;;5051934;28;20274;-76
2022/04/20 07:06:29;;;;;;;0.60;0.60;;;8.30;1.00;;;;;;5051422;28;20175;-74
2022/04/20 07:08:54;;;;;;;0.60;0.60;;;8.30;1.00;;;;;;5050743;28;20667;-74
2022/04/20 07:11:20;;;;;;;0.60;0.60;;;8.50;1.00;;;;;;5051312;28;20215;-73
2022/04/20 07:13:46;;;;;;;0.70;0.70;;;8.40;1.00;;;;;;5051610;28;20698;-73
2022/04/20 07:16:12;;;;;;;0.60;0.60;;;8.50;1.00;;;;;;5033586;28;20202;-73
2022/04/20 07:18:38;;;;;;;0.60;0.60;;;8.80;1.00;;;;;;5051280;28;20632;-73
2022/04/20 07:21:04;;;;;;;0.67;0.67;;;9.70;1.00;;;;;;5050288;28;20202;-72
2022/04/20 07:23:29;;;;;;;0.60;0.60;;;9.70;1.00;;;;;;5051110;28;20183;-73
2022/04/20 07:25:55;;;;;;;0.60;0.60;;;10.40;1.00;;;;;;5051743;28;20178;-73
2022/04/20 07:28:21;;;;;;;0.60;0.60;;;10.10;1.00;;;;;;5051136;28;20209;-75
2022/04/20 07:30:47;;;;;;;0.60;0.60;;;10.70;1.00;;;;;;5050539;28;20667;-74
2022/04/20 07:33:16;;;;;;;0.60;0.60;;;10.80;1.00;;;;;;5050864;28;20224;-73
2022/04/20 07:35:45;;;;;;;0.60;0.60;;;10.00;1.00;;;;;;5051152;28;20651;-71
2022/04/20 07:38:11;;;;;;;0.60;0.60;;;9.90;1.00;;;;;;5051126;28;20183;-75
2022/04/20 07:40:37;;;;;;;0.60;0.60;;;9.60;1.00;;;;;;5050738;28;20534;-74
2022/04/20 07:43:03;;;;;;;0.60;0.60;;;9.90;1.00;;;;;;5050699;28;20197;-73
2022/04/20 07:45:29;;;;;;;0.50;0.50;;;10.10;1.00;;;;;;5051073;28;20178;-76
2022/04/20 07:47:56;;;;;;;0.60;0.60;;;10.70;1.00;;;;;;5051265;28;20462;-75
2022/04/20 07:50:25;;;;;;;0.50;0.50;;;11.30;1.00;;;;;;5050272;28;20576;-75
2022/04/20 07:52:59;;;;;;;0.40;0.40;;;11.60;1.00;;;;;;5050995;28;20179;-74
2022/04/20 07:55:25;;;;;;;0.50;0.50;;;11.70;1.00;;;;;;5050564;28;20534;-76
2022/04/20 07:57:54;;;;;;;0.47;0.47;;;11.70;1.00;;;;;;5049929;28;20644;-80
2022/04/20 08:00:20;;;;;;;0.50;0.50;;;11.60;1.00;;;;;;5052901;28;20610;-78
2022/04/20 08:02:46;;;;;;;0.50;0.50;;;12.00;1.00;;;;;;5052821;28;20183;-78
2022/04/20 08:05:14;;;;;;;0.50;0.50;;;12.60;1.00;;;;;;5052940;28;20183;-79
2022/04/20 08:07:41;;;;;;;0.40;0.40;;;12.70;1.00;;;;;;5057105;28;20321;-79
2022/04/20 08:10:09;;;;;;;0.50;0.50;;;12.30;1.00;;;;;;5055797;28;20269;-77
2022/04/20 08:12:39;;;;;;;0.50;0.50;;;11.60;1.00;;;;;;5037912;28;20529;-78
2022/04/20 08:15:07;;;;;;;0.50;0.50;;;11.70;1.00;;;;;;5056735;28;20199;-76
2022/04/20 08:17:33;;;;;;;0.40;0.40;;;12.20;1.00;;;;;;5056615;28;20183;-78
2022/04/20 08:19:59;;;;;;;0.50;0.50;;;11.90;1.00;;;;;;5056869;28;20187;-77
2022/04/20 08:22:25;;;;;;;0.50;0.50;;;12.30;1.00;;;;;;5063039;28;20182;-79
2022/04/20 08:24:51;;;;;;;0.50;0.50;;;13.20;1.00;;;;;;5056203;28;20171;-79
2022/04/20 08:27:17;;;;;;;0.40;0.40;;;12.50;1.00;;;;;;5057486;28;20181;-78
2022/04/20 08:29:45;;;;;;;0.40;0.40;;;12.70;1.00;;;;;;5056363;28;20234;-75
2022/04/20 08:32:10;;;;;;;0.43;0.43;;;13.00;1.00;;;;;;5054973;28;20838;-77
2022/04/20 08:34:36;;;;;;;0.50;0.50;;;13.40;1.00;;;;;;5056229;28;20183;-77
2022/04/20 08:37:01;;;;;;;0.40;0.40;;;12.20;1.00;;;;;;5058074;28;20252;-79
2022/04/20 08:39:27;;;;;;;0.43;0.43;;;12.50;1.00;;;;;;5061129;28;20184;-80
2022/04/20 08:41:54;;;;;;;0.40;0.40;;;12.70;1.00;;;;;;5057894;28;20591;-78
2022/04/20 08:44:28;;;;;;;0.40;0.40;;;12.60;1.00;;;;;;5059889;28;20248;-80
2022/04/20 08:47:00;;;;;;;0.40;0.40;;;13.70;1.00;;;;;;5059977;28;20183;-78
2022/04/20 08:49:26;;;;;;;0.40;0.40;;;13.80;1.00;;;;;;5055770;28;20225;-78
2022/04/20 08:54:36;;;;;;;0.30;0.30;;;12.60;1.00;;;;;;5058074;28;20178;-77
2022/04/20 08:57:15;;;;;;;0.40;0.40;;;12.30;1.00;;;;;;5057237;28;20258;-78
2022/04/20 08:59:48;;;;;;;0.40;0.40;;;13.10;1.00;;;;;;5056186;28;20182;-77
2022/04/20 09:02:19;;;;;;;0.40;0.40;;;12.30;1.00;;;;;;5055294;28;20175;-79
2022/04/20 09:04:44;;;;;;;0.50;0.50;;;12.90;1.00;;;;;;5054653;28;20171;-78
2022/04/20 09:07:12;;;;;;;0.43;0.43;;;12.10;1.00;;;;;;5054646;28;20716;-77
2022/04/20 09:09:38;;;;;;;0.50;0.50;;;12.60;1.00;;;;;;5054728;28;20246;-78
2022/04/20 09:12:14;;;;;;;0.40;0.40;;;13.00;1.00;;;;;;5053379;28;20245;-78
2022/04/20 09:14:41;;;;;;;0.40;0.40;;;13.40;1.00;;;;;;5052438;28;20201;-78
2022/04/20 09:17:12;;;;;;;0.40;0.40;;;12.80;1.00;;;;;;5052343;28;20172;-78
2022/04/20 09:19:39;;;;;;;0.50;0.50;;;13.80;1.00;;;;;;5062328;28;20186;-78
2022/04/20 09:22:22;;;;;;;0.30;0.30;;;13.90;1.00;;;;;;5054138;28;20199;-79
2022/04/20 09:25:07;;;;;;;0.40;0.40;;;13.70;1.00;;;;;;5054261;28;20179;-78
2022/04/20 09:27:37;;;;;;;0.40;0.40;;;13.70;1.00;;;;;;5055913;28;20171;-78
2022/04/20 09:30:09;;;;;;;0.40;0.40;;;13.70;1.00;;;;;;5053901;28;20236;-77
2022/04/20 09:32:44;;;;;;;0.50;0.50;;;13.80;1.00;;;;;;5054543;28;20179;-78
2022/04/20 09:35:12;;;;;;;0.47;0.47;;;14.10;1.00;;;;;;5054701;28;20182;-80
2022/04/20 09:37:39;;;;;;;0.50;0.50;;;13.20;1.00;;;;;;5054735;28;20620;-78
2022/04/20 09:40:10;;;;;;;0.40;0.40;;;13.70;1.00;;;;;;5054360;28;20642;-78
2022/04/20 09:42:37;;;;;;;0.40;0.40;;;13.50;1.00;;;;;;5054046;28;20179;-79
2022/04/20 09:45:08;;;;;;;0.50;0.50;;;12.90;1.00;;;;;;5054423;28;20175;-79
2022/04/20 09:50:27;;;;;;;0.40;0.40;;;13.70;1.00;;;;;;5053625;28;20238;-78
2022/04/20 09:52:55;;;;;;;0.40;0.40;;;13.90;1.00;;;;;;5053473;28;20182;-77
2022/04/20 09:55:37;;;;;;;0.43;0.43;;;14.30;1.00;;;;;;5053315;28;20179;-76
2022/04/20 09:58:19;;;;;;;0.40;0.40;;;14.10;1.00;;;;;;5053495;28;20523;-79
2022/04/20 10:00:46;;;;;;;0.40;0.40;;;14.20;1.00;;;;;;5053072;28;20206;-76
2022/04/20 10:03:26;;;;;;;0.40;0.40;;;15.40;1.00;;;;;;5053274;28;20185;-74
2022/04/20 10:05:52;;;;;;;0.40;0.40;;;15.10;1.00;;;;;;5054377;28;20202;-77
2022/04/20 10:08:18;;;;;;;0.40;0.40;;;14.00;1.00;;;;;;5053447;28;20245;-77
2022/04/20 10:10:46;;;;;;;0.43;0.43;;;13.80;1.00;;;;;;5068889;22;20215;-77
2022/04/20 10:13:12;;;;;;;0.40;0.40;;;14.50;1.00;;;;;;5066222;28;20266;-78
2022/04/20 10:18:25;;;;;;;0.50;0.50;;;14.20;1.00;;;;;;5065779;28;20189;-77
2022/04/20 10:20:56;;;;;;;0.40;0.40;;;14.50;1.00;;;;;;5065523;28;20194;-77
2022/04/20 10:23:23;;;;;;;0.40;0.40;;;14.80;1.00;;;;;;5066044;28;20590;-79
2022/04/20 10:25:50;;;;;;;0.40;0.40;;;15.40;1.00;;;;;;5048568;28;20179;-77
2022/04/20 10:28:31;;;;;;;0.50;0.50;;;16.00;1.00;;;;;;5048859;28;20719;-77
2022/04/20 10:31:18;;;;;;;0.33;0.33;;;14.40;1.00;;;;;;5052143;28;20583;-76
2022/04/20 10:33:45;;;;;;;0.40;0.40;;;14.70;1.00;;;;;;5053288;28;20581;-77
2022/04/20 10:36:15;;;;;;;0.47;0.47;;;15.30;1.00;;;;;;5063311;28;20166;-75
2022/04/20 10:38:44;;;;;;;0.40;0.40;;;15.70;1.00;;;;;;5046967;28;20183;-77
2022/04/20 10:41:16;;;;;;;0.47;0.47;;;15.50;1.00;;;;;;5040593;28;20192;-76
2022/04/20 10:43:42;;;;;;;0.50;0.50;;;15.30;1.00;;;;;;5041744;28;20203;-76
2022/04/20 10:46:12;;;;;;;0.50;0.50;;;15.00;1.00;;;;;;5042888;28;20163;-76
2022/04/20 10:48:57;;;;;;;0.50;0.50;;;14.60;1.00;;;;;;5042257;28;20208;-74
2022/04/20 10:51:24;;;;;;;0.50;0.50;;;15.10;1.00;;;;;;5040547;28;20198;-76
2022/04/20 10:53:52;;;;;;;0.37;0.37;;;16.30;1.00;;;;;;5052436;28;20171;-76
2022/04/20 10:56:20;;;;;;;0.50;0.50;;;16.60;1.00;;;;;;5052810;28;20175;-76
2022/04/20 10:59:01;;;;;;;0.50;0.50;;;16.40;1.00;;;;;;5052746;28;20179;-75
2022/04/20 11:01:26;;;;;;;0.40;0.40;;;16.00;1.00;;;;;;5046378;28;20214;-76
2022/04/20 11:03:58;;;;;;;0.50;0.50;;;15.50;1.00;;;;;;5041136;28;20194;-76
2022/04/20 11:06:27;;;;;;;0.37;0.37;;;15.70;1.00;;;;;;5040987;28;20262;-76
2022/04/20 11:08:52;;;;;;;0.50;0.50;;;15.00;1.00;;;;;;5042951;28;20242;-76
2022/04/20 11:19:50;;;;;;;0.40;0.40;;;15.00;1.00;;;;;;5042095;28;20174;-77
2022/04/20 11:22:16;;;;;;;0.50;0.50;;;15.10;1.00;;;;;;5042625;28;20190;-76
2022/04/20 11:24:42;;;;;;;0.47;0.47;;;15.70;1.00;;;;;;5050484;28;20171;-76
2022/04/20 11:27:08;;;;;;;0.50;0.50;;;15.50;1.00;;;;;;5054589;28;20175;-77
2022/04/20 11:29:34;;;;;;;0.53;0.53;;;15.70;1.00;;;;;;5053543;28;20268;-76
2022/04/20 11:32:10;;;;;;;0.40;0.40;;;15.40;1.00;;;;;;5053117;28;20187;-78
2022/04/20 11:34:39;;;;;;;0.47;0.47;;;15.60;1.00;;;;;;5056959;28;20182;-77
2022/04/20 11:37:09;;;;;;;0.40;0.40;;;15.30;1.00;;;;;;5057606;28;20611;-77
2022/04/20 11:39:35;;;;;;;0.40;0.40;;;16.10;1.00;;;;;;5058481;28;20640;-77
2022/04/20 11:42:05;;;;;;;0.40;0.40;;;16.70;1.00;;;;;;5057686;28;20198;-77
2022/04/20 11:44:34;;;;;;;0.40;0.40;;;16.80;1.00;;;;;;5055459;28;20178;-76
2022/04/20 11:47:10;;;;;;;0.50;0.50;;;16.40;1.00;;;;;;5058823;28;20179;-77
2022/04/20 11:49:44;;;;;;;0.40;0.40;;;16.80;1.00;;;;;;5056304;28;20218;-76
2022/04/20 11:52:14;;;;;;;0.30;0.30;;;16.00;1.00;;;;;;5055205;28;20205;-80
2022/04/20 11:54:40;;;;;;;0.40;0.40;;;16.00;1.00;;;;;;5054616;28;20179;-78
2022/04/20 11:57:07;;;;;;;0.43;0.43;;;16.40;1.00;;;;;;5049617;28;20217;-77
2022/04/20 11:59:34;;;;;;;0.60;0.60;;;16.50;1.00;;;;;;5058652;28;20266;-78
2022/04/20 12:01:59;;;;;;;0.40;0.40;;;15.50;1.00;;;;;;5054329;28;20639;-78
2022/04/20 12:04:27;;;;;;;0.40;0.40;;;15.60;1.00;;;;;;5052148;28;20210;-78
2022/04/20 12:06:54;;;;;;;0.43;0.43;;;15.90;1.00;;;;;;5053734;28;20171;-77
2022/04/20 12:09:24;;;;;;;0.40;0.40;;;16.80;1.00;;;;;;5066036;28;20706;-76
2022/04/20 12:11:55;;;;;;;0.50;0.50;;;16.00;1.00;;;;;;5058779;28;20302;-77
2022/04/20 12:14:23;;;;;;;0.47;0.47;;;16.60;1.00;;;;;;5050315;28;20176;-78
2022/04/20 12:16:51;;;;;;;0.50;0.50;;;17.20;1.00;;;;;;5051531;28;20860;-77
2022/04/20 12:19:19;;;;;;;0.50;0.50;;;16.20;1.00;;;;;;5052223;28;20194;-77
2022/04/20 12:21:46;;;;;;;0.30;0.30;;;16.30;1.00;;;;;;5064552;28;20195;-75
2022/04/20 12:24:21;;;;;;;0.47;0.47;;;16.80;1.00;;;;;;5064691;28;20190;-74
2022/04/20 12:26:49;;;;;;;0.40;0.40;;;15.90;1.00;;;;;;5053283;28;20187;-76
2022/04/20 12:29:16;;;;;;;0.40;0.40;;;16.70;1.00;;;;;;5049118;28;20234;-77
2022/04/20 12:31:43;;;;;;;0.40;0.40;;;16.70;1.00;;;;;;5053792;28;20203;-77
2022/04/20 12:34:11;;;;;;;0.37;0.37;;;15.60;1.00;;;;;;5059824;28;20511;-77
2022/04/20 12:36:53;;;;;;;0.40;0.40;;;16.00;1.00;;;;;;5083046;28;20674;-76
2022/04/20 12:39:35;;;;;;;0.40;0.40;;;15.50;1.00;;;;;;5083153;28;20182;-75
2022/04/20 12:42:05;;;;;;;0.43;0.43;;;16.10;1.00;;;;;;5071588;28;20257;-76
2022/04/20 12:44:51;;;;;;;0.50;0.50;;;17.00;1.00;;;;;;5042314;28;20230;-76
2022/04/20 12:47:16;;;;;;;0.40;0.40;;;17.70;1.00;;;;;;5040413;28;20666;-76
2022/04/20 12:49:43;;;;;;;0.40;0.40;;;17.10;1.00;;;;;;5031561;28;20250;-77
2022/04/20 12:52:17;;;;;;;0.40;0.40;;;17.30;1.00;;;;;;5030944;28;20261;-75
2022/04/20 12:54:55;;;;;;;0.40;0.40;;;17.40;1.00;;;;;;5034483;28;20196;-77
2022/04/20 13:02:01;;;;;;;0.40;0.40;;;17.10;1.00;;;;;;5049213;28;20627;-76
2022/04/20 13:03:40;;;;;;;0.47;0.47;;;17.00;1.00;;;;;;5055335;28;20183;-78
2022/04/20 13:06:10;;;;;;;0.50;0.50;;;17.70;1.00;;;;;;5054110;28;20596;-78
2022/04/20 13:08:37;;;;;;;0.40;0.40;;;18.40;1.00;;;;;;5053837;28;20242;-76
2022/04/20 13:11:03;;;;;;;0.30;0.30;;;18.40;1.00;;;;;;5053293;28;20238;-75
2022/04/20 13:13:29;;;;;;;0.40;0.40;;;17.40;1.00;;;;;;5053733;28;20171;-76
2022/04/20 13:15:55;;;;;;;0.50;0.50;;;17.00;1.00;;;;;;5053762;28;20312;-78
2022/04/20 13:18:21;;;;;;;0.40;0.40;;;16.80;1.00;;;;;;5053608;28;20605;-75
2022/04/20 13:20:46;;;;;;;0.40;0.40;;;17.10;1.00;;;;;;5053178;28;20206;-77
2022/04/20 13:23:12;;;;;;;0.40;0.40;;;17.60;1.00;;;;;;5053603;28;20261;-77
2022/04/20 13:28:22;;;;;;;0.40;0.40;;;17.10;1.00;;;;;;5033846;28;20305;-75
2022/04/20 13:30:49;;;;;;;0.47;0.47;;;16.60;1.00;;;;;;5033243;28;20227;-77
2022/04/20 13:33:15;;;;;;;0.40;0.40;;;17.20;1.00;;;;;;5033723;28;20641;-76
2022/04/20 13:35:43;;;;;;;0.40;0.40;;;17.30;1.00;;;;;;5052762;28;20187;-77
2022/04/20 13:38:11;;;;;;;0.40;0.40;;;17.70;1.00;;;;;;5067353;28;20228;-75
2022/04/20 13:40:39;;;;;;;0.40;0.40;;;17.80;1.00;;;;;;5072617;28;20204;-76
2022/04/20 13:43:06;;;;;;;0.47;0.47;;;17.50;1.00;;;;;;5056074;28;20266;-76
2022/04/20 13:45:32;;;;;;;0.33;0.33;;;17.00;1.00;;;;;;5053621;28;20236;-76
2022/04/20 13:47:57;;;;;;;0.40;0.40;;;16.90;1.00;;;;;;5053434;28;20183;-76